createdAt,value
2018-05-08T00:02:17.552Z,10.30
2018-05-08T00:04:45.087Z,9.07
2018-05-08T00:07:12.596Z,8.03
2018-05-08T00:09:40.951Z,10.53
2018-05-08T00:12:09.238Z,12.77
2018-05-08T00:14:37.548Z,9.30
2018-05-08T00:17:05.115Z,6.83
2018-05-08T00:19:32.663Z,8.43
2018-05-08T00:22:00.177Z,7.33
2018-05-08T00:24:27.705Z,9.63
2018-05-08T00:26:55.221Z,11.23
2018-05-08T00:29:23.534Z,7.60
2018-05-08T00:31:51.069Z,8.03
2018-05-08T00:34:19.370Z,8.83
2018-05-08T00:36:46.890Z,10.63
2018-05-08T00:39:15.263Z,9.03
2018-05-08T00:41:42.776Z,10.00
2018-05-08T00:44:10.333Z,10.33
2018-05-08T00:46:37.869Z,8.63
2018-05-08T00:49:05.385Z,8.33
2018-05-08T00:51:32.921Z,8.80
2018-05-08T00:54:01.197Z,7.60
2018-05-08T00:56:28.738Z,9.33
2018-05-08T00:58:56.273Z,10.13
2018-05-08T01:01:24.576Z,7.23
2018-05-08T01:03:52.849Z,8.27
2018-05-08T01:06:21.157Z,8.00
2018-05-08T01:08:48.669Z,8.63
2018-05-08T01:11:16.221Z,10.10
2018-05-08T01:13:44.490Z,8.30
2018-05-08T01:16:12.770Z,9.73
2018-05-08T01:18:40.318Z,8.07
2018-05-08T01:21:08.597Z,9.63
2018-05-08T01:23:36.896Z,7.80
2018-05-08T01:26:04.428Z,10.27
2018-05-08T01:28:32.751Z,10.37
2018-05-08T01:31:00.266Z,7.93
2018-05-08T01:33:28.566Z,10.80
2018-05-08T01:35:56.851Z,8.60
2018-05-08T01:38:24.386Z,6.37
2018-05-08T01:40:52.670Z,13.83
2018-05-08T01:43:20.249Z,10.37
2018-05-08T01:45:47.761Z,10.70
2018-05-08T01:48:15.301Z,7.60
2018-05-08T01:50:42.807Z,8.60
2018-05-08T01:53:11.106Z,8.00
2018-05-08T01:55:38.609Z,9.20
2018-05-08T01:58:06.148Z,8.93
2018-05-08T02:00:33.658Z,9.27
2018-05-08T02:03:02.939Z,11.20
2018-05-08T02:05:30.474Z,8.03
2018-05-08T02:07:57.986Z,8.90
2018-05-08T02:10:26.286Z,7.07
2018-05-08T02:12:53.857Z,11.63
2018-05-08T02:15:21.369Z,8.40
2018-05-08T02:17:49.646Z,9.00
2018-05-08T02:20:18.016Z,10.13
2018-05-08T02:22:45.582Z,10.03
2018-05-08T02:25:13.886Z,7.73
2018-05-08T02:27:41.402Z,9.27
2018-05-08T02:30:08.951Z,8.53
2018-05-08T02:32:36.470Z,8.80
2018-05-08T02:35:04.768Z,8.03
2018-05-08T02:37:32.396Z,9.90
2018-05-08T02:39:59.913Z,8.97
2018-05-08T02:42:27.426Z,8.47
2018-05-08T02:44:54.953Z,12.10
2018-05-08T02:47:23.229Z,6.77
2018-05-08T02:49:50.833Z,9.70
2018-05-08T02:52:19.055Z,7.20
2018-05-08T02:54:46.565Z,8.93
2018-05-08T02:57:14.104Z,7.57
2018-05-08T02:59:41.626Z,8.27
2018-05-08T03:02:09.943Z,7.67
2018-05-08T03:04:37.459Z,6.63
2018-05-08T03:07:05.000Z,6.70
2018-05-08T03:09:32.517Z,9.50
2018-05-08T03:12:00.046Z,8.00
2018-05-08T03:14:28.337Z,6.53
2018-05-08T03:16:56.671Z,9.50
2018-05-08T03:19:24.180Z,7.97
2018-05-08T03:21:52.478Z,7.63
2018-05-08T03:24:19.980Z,7.30
2018-05-08T03:26:48.402Z,7.50
2018-05-08T03:29:15.962Z,6.23
2018-05-08T03:31:43.491Z,7.73
2018-05-08T03:34:11.034Z,7.27
2018-05-08T03:36:38.546Z,7.93
2018-05-08T03:39:06.093Z,9.10
2018-05-08T03:41:34.373Z,7.53
2018-05-08T03:44:01.926Z,7.63
2018-05-08T03:46:30.238Z,9.67
2018-05-08T03:48:57.869Z,7.60
2018-05-08T03:51:25.377Z,8.73
2018-05-08T03:53:52.944Z,7.30
2018-05-08T03:56:20.444Z,9.10
2018-05-08T03:58:49.098Z,8.97
2018-05-08T04:01:28.245Z,7.80
2018-05-08T04:04:08.250Z,7.43
2018-05-08T04:09:34.940Z,9.70
2018-05-08T04:12:02.463Z,11.70
2018-05-08T04:14:30.010Z,10.50
2018-05-08T04:16:57.583Z,11.00
2018-05-08T04:19:25.141Z,10.93
2018-05-08T04:21:52.657Z,8.80
2018-05-08T04:24:20.958Z,10.80
2018-05-08T04:26:48.515Z,10.03
2018-05-08T04:29:16.081Z,10.10
2018-05-08T04:31:43.589Z,9.73
2018-05-08T04:34:11.129Z,8.60
2018-05-08T04:36:39.459Z,8.00
2018-05-08T04:39:07.760Z,8.33
2018-05-08T04:41:35.282Z,8.07
2018-05-08T04:44:03.597Z,6.63
2018-05-08T04:46:31.624Z,10.67
2018-05-08T04:48:59.171Z,8.60
2018-05-08T04:51:26.701Z,9.00
2018-05-08T04:53:54.280Z,11.17
2018-05-08T04:56:21.790Z,10.53
2018-05-08T04:58:49.334Z,10.70
2018-05-08T05:03:54.506Z,13.30
2018-05-08T05:06:22.025Z,10.60
2018-05-08T05:08:49.546Z,12.37
2018-05-08T05:11:17.095Z,10.77
2018-05-08T05:13:44.615Z,10.60
2018-05-08T05:16:13.321Z,8.57
2018-05-08T05:18:40.846Z,10.47
2018-05-08T05:21:08.381Z,8.20
2018-05-08T05:23:35.900Z,10.03
2018-05-08T05:26:03.479Z,11.40
2018-05-08T05:28:31.071Z,9.20
2018-05-08T05:30:58.605Z,11.57
2018-05-08T05:33:26.143Z,11.40
2018-05-08T05:35:53.682Z,8.47
2018-05-08T05:38:21.200Z,9.93
2018-05-08T05:40:48.874Z,11.07
2018-05-08T05:43:16.409Z,9.83
2018-05-08T05:45:44.699Z,10.30
2018-05-08T05:48:12.234Z,12.27
2018-05-08T05:50:39.761Z,10.73
2018-05-08T05:53:08.137Z,7.70
2018-05-08T05:55:36.413Z,9.80
2018-05-08T05:58:03.949Z,10.13
2018-05-08T06:00:31.470Z,9.10
2018-05-08T06:02:59.001Z,14.33
2018-05-08T06:05:26.521Z,7.73
2018-05-08T06:07:54.053Z,9.97
2018-05-08T06:10:21.584Z,7.03
2018-05-08T06:12:49.166Z,8.97
2018-05-08T06:15:16.705Z,7.27
2018-05-08T06:17:44.249Z,7.30
2018-05-08T06:20:12.521Z,8.77
2018-05-08T06:22:40.063Z,8.93
2018-05-08T06:25:07.593Z,11.23
2018-05-08T06:27:35.128Z,6.80
2018-05-08T06:30:03.436Z,8.00
2018-05-08T06:32:30.957Z,7.77
2018-05-08T06:34:58.505Z,8.60
2018-05-08T06:37:26.865Z,7.47
2018-05-08T06:39:55.181Z,9.20
2018-05-08T06:42:22.771Z,7.93
2018-05-08T06:44:50.396Z,9.43
2018-05-08T06:47:17.936Z,8.37
2018-05-08T06:49:46.225Z,8.40
2018-05-08T06:52:14.521Z,10.70
2018-05-08T06:54:42.033Z,6.50
2018-05-08T06:57:09.576Z,10.10
2018-05-08T06:59:37.117Z,6.47
2018-05-08T07:02:04.633Z,6.77
2018-05-08T07:04:32.965Z,9.57
2018-05-08T07:07:00.482Z,7.00
2018-05-08T07:09:28.765Z,11.67
2018-05-08T07:11:56.352Z,9.67
2018-05-08T07:14:23.862Z,9.13
2018-05-08T07:16:52.214Z,8.63
2018-05-08T07:19:19.726Z,10.53
2018-05-08T07:21:47.298Z,8.30
2018-05-08T07:24:15.606Z,10.70
2018-05-08T07:26:43.149Z,8.40
2018-05-08T07:29:10.681Z,14.43
2018-05-08T07:31:38.965Z,7.63
2018-05-08T07:34:06.501Z,9.97
2018-05-08T07:36:34.020Z,15.13
2018-05-08T07:39:01.559Z,8.57
2018-05-08T07:41:29.133Z,9.43
2018-05-08T07:43:57.466Z,10.87
2018-05-08T07:46:24.976Z,8.40
2018-05-08T07:48:52.513Z,12.00
2018-05-08T07:51:20.019Z,8.00
2018-05-08T07:53:48.337Z,13.80
2018-05-08T07:56:15.855Z,7.57
2018-05-08T07:58:44.189Z,13.57
2018-05-08T08:01:11.749Z,8.93
2018-05-08T08:03:39.554Z,10.27
2018-05-08T08:06:07.118Z,9.63
2018-05-08T08:08:35.425Z,8.57
2018-05-08T08:11:02.966Z,9.27
2018-05-08T08:13:30.495Z,11.03
2018-05-08T08:15:58.040Z,7.77
2018-05-08T08:18:25.562Z,8.03
2018-05-08T08:20:53.894Z,12.23
2018-05-08T08:23:21.402Z,7.23
2018-05-08T08:25:48.951Z,12.10
2018-05-08T08:28:16.529Z,13.00
2018-05-08T08:30:44.045Z,11.77
2018-05-08T08:33:12.352Z,10.70
2018-05-08T08:35:39.872Z,8.53
2018-05-08T08:38:08.222Z,7.10
2018-05-08T08:40:35.729Z,7.23
2018-05-08T08:43:04.055Z,12.13
2018-05-08T08:45:31.609Z,10.63
2018-05-08T08:47:59.129Z,9.27
2018-05-08T08:50:26.667Z,11.40
2018-05-08T08:52:54.210Z,10.80
2018-05-08T08:55:21.737Z,7.83
2018-05-08T08:57:49.287Z,10.10
2018-05-08T09:00:16.830Z,10.10
2018-05-08T09:02:44.361Z,9.10
2018-05-08T09:05:12.654Z,9.80
2018-05-08T09:07:40.962Z,10.83
2018-05-08T09:10:08.470Z,7.97
2018-05-08T09:12:35.993Z,9.00
2018-05-08T09:15:03.508Z,7.57
2018-05-08T09:17:31.815Z,7.43
2018-05-08T09:19:59.369Z,10.50
2018-05-08T09:22:27.013Z,10.97
2018-05-08T09:24:55.290Z,8.27
2018-05-08T09:27:22.955Z,9.80
2018-05-08T09:29:50.673Z,6.60
2018-05-08T09:32:18.205Z,7.20
2018-05-08T09:34:45.737Z,7.10
2018-05-08T09:37:13.255Z,11.32
2018-05-08T09:39:40.854Z,7.97
2018-05-08T09:44:34.664Z,11.10
2018-05-08T09:47:02.173Z,8.25
2018-05-08T09:49:29.704Z,8.90
2018-05-08T09:51:57.213Z,8.77
2018-05-08T09:54:25.524Z,9.00
2018-05-08T09:56:53.307Z,7.45
2018-05-08T09:59:20.906Z,5.97
2018-05-08T10:01:48.457Z,8.02
2018-05-08T10:04:16.825Z,7.93
2018-05-08T10:06:45.223Z,12.90
2018-05-08T10:09:12.725Z,7.50
2018-05-08T10:11:40.274Z,8.13
2018-05-08T10:14:07.809Z,11.02
2018-05-08T10:16:35.373Z,11.75
2018-05-08T10:19:02.905Z,17.90
2018-05-08T10:21:30.412Z,8.95
2018-05-08T10:23:57.953Z,11.02
2018-05-08T10:26:25.491Z,8.27
2018-05-08T10:28:53.845Z,11.00
2018-05-08T10:31:21.399Z,9.98
2018-05-08T10:33:48.950Z,10.68
2018-05-08T10:36:16.504Z,10.70
2018-05-08T10:38:44.043Z,7.65
2018-05-08T10:41:11.566Z,11.20
2018-05-08T10:43:39.866Z,11.48
2018-05-08T10:46:07.474Z,7.05
2018-05-08T10:48:35.025Z,10.10
2018-05-08T10:51:02.543Z,9.35
2018-05-08T10:53:30.857Z,7.43
2018-05-08T10:55:58.396Z,11.12
2018-05-08T10:58:25.959Z,10.15
2018-05-08T11:00:53.688Z,11.18
2018-05-08T11:03:21.982Z,8.57
2018-05-08T11:05:49.560Z,10.38
2018-05-08T11:08:17.498Z,14.23
2018-05-08T11:10:45.799Z,8.93
2018-05-08T11:13:13.318Z,9.07
2018-05-08T11:15:40.910Z,8.18
2018-05-08T11:18:08.431Z,8.05
2018-05-08T11:20:36.004Z,5.90
2018-05-08T11:23:04.305Z,6.70
2018-05-08T11:25:31.866Z,10.23
2018-05-08T11:27:59.388Z,10.15
2018-05-08T11:30:26.982Z,7.57
2018-05-08T11:32:54.541Z,9.73
2018-05-08T11:35:22.085Z,9.27
2018-05-08T11:37:50.412Z,7.72
2018-05-08T11:40:17.946Z,9.60
2018-05-08T11:42:45.455Z,6.12
2018-05-08T11:45:12.973Z,8.70
2018-05-08T11:47:40.506Z,9.88
2018-05-08T11:50:08.047Z,8.30
2018-05-08T11:52:35.577Z,6.62
2018-05-08T11:55:03.139Z,7.50
2018-05-08T11:57:30.700Z,7.70
2018-05-08T11:59:58.214Z,6.30
2018-05-08T12:02:25.760Z,5.10
2018-05-08T12:04:54.046Z,10.90
2018-05-08T12:07:21.596Z,9.13
2018-05-08T12:09:49.901Z,5.18
2018-05-08T12:12:17.417Z,9.30
2018-05-08T12:14:45.739Z,6.40
2018-05-08T12:17:13.275Z,8.65
2018-05-08T12:19:41.590Z,6.45
2018-05-08T12:22:09.093Z,6.20
2018-05-08T12:24:37.402Z,6.32
2018-05-08T12:27:04.922Z,4.15
2018-05-08T12:29:32.466Z,6.03
2018-05-08T12:32:00.000Z,6.93
2018-05-08T12:34:27.559Z,6.03
2018-05-08T12:36:55.146Z,7.03
2018-05-08T12:39:22.715Z,5.95
2018-05-08T12:41:50.247Z,6.47
2018-05-08T12:44:17.787Z,6.05
2018-05-08T12:46:45.341Z,7.95
2018-05-08T12:49:12.850Z,8.05
2018-05-08T12:51:40.421Z,7.28
2018-05-08T12:54:08.702Z,6.68
2018-05-08T12:56:37.007Z,7.93
2018-05-08T12:59:04.633Z,8.57
2018-05-08T13:01:32.916Z,6.35
2018-05-08T13:04:00.485Z,7.20
2018-05-08T13:06:28.807Z,5.43
2018-05-08T13:08:56.424Z,8.50
2018-05-08T13:11:24.731Z,9.27
2018-05-08T13:13:52.266Z,4.75
2018-05-08T13:16:20.569Z,8.70
2018-05-08T13:18:48.129Z,8.75
2018-05-08T13:21:15.667Z,8.23
2018-05-08T13:23:44.009Z,7.00
2018-05-08T13:26:11.529Z,6.82
2018-05-08T13:28:39.068Z,6.45
2018-05-08T13:31:06.704Z,6.03
2018-05-08T13:33:34.184Z,6.57
2018-05-08T13:36:02.479Z,8.10
2018-05-08T13:38:30.081Z,7.85
2018-05-08T13:40:57.625Z,10.82
2018-05-08T13:43:25.170Z,4.62
2018-05-08T13:45:53.478Z,8.02
2018-05-08T13:48:21.001Z,8.13
2018-05-08T13:50:49.314Z,7.47
2018-05-08T13:53:16.826Z,5.95
2018-05-08T13:55:44.372Z,6.60
2018-05-08T13:58:12.651Z,5.35
2018-05-08T14:00:40.218Z,5.57
2018-05-08T14:03:09.296Z,6.03
2018-05-08T14:05:37.671Z,6.60
2018-05-08T14:08:07.318Z,6.25
2018-05-08T14:10:34.886Z,8.27
2018-05-08T14:13:02.472Z,8.27
2018-05-08T14:15:30.029Z,9.30
2018-05-08T14:17:57.496Z,4.80
2018-05-08T14:20:25.033Z,7.43
2018-05-08T14:22:52.573Z,7.03
2018-05-08T14:25:21.050Z,5.55
2018-05-08T14:27:48.564Z,4.25
2018-05-08T14:30:16.861Z,5.35
2018-05-08T14:32:45.165Z,6.70
2018-05-08T14:35:12.696Z,10.75
2018-05-08T14:37:41.013Z,5.55
2018-05-08T14:40:08.535Z,6.18
2018-05-08T14:42:36.876Z,3.97
2018-05-08T14:45:04.417Z,8.52
2018-05-08T14:47:31.965Z,4.25
2018-05-08T14:50:00.244Z,9.05
2018-05-08T14:52:27.792Z,8.02
2018-05-08T14:54:55.330Z,5.70
2018-05-08T14:57:22.850Z,7.22
2018-05-08T14:59:50.402Z,8.10
2018-05-08T15:02:17.929Z,6.75
2018-05-08T15:04:45.454Z,6.68
2018-05-08T15:07:13.741Z,5.12
2018-05-08T15:09:41.298Z,8.20
2018-05-08T15:12:08.870Z,8.52
2018-05-08T15:14:36.407Z,6.50
2018-05-08T15:17:04.680Z,10.48
2018-05-08T15:19:33.007Z,5.75
2018-05-08T15:22:00.554Z,3.45
2018-05-08T15:24:28.137Z,7.93
2018-05-08T15:26:55.650Z,8.00
2018-05-08T15:29:23.243Z,7.12
2018-05-08T15:31:50.769Z,6.18
2018-05-08T15:34:19.104Z,10.73
2018-05-08T15:36:46.700Z,4.85
2018-05-08T15:39:14.989Z,7.37
2018-05-08T15:41:42.549Z,8.88
2018-05-08T15:44:10.818Z,7.85
2018-05-08T15:46:39.116Z,6.47
2018-05-08T15:49:07.402Z,7.62
2018-05-08T15:51:34.945Z,6.68
2018-05-08T15:54:02.463Z,5.25
2018-05-08T15:56:30.026Z,7.90
2018-05-08T15:58:57.577Z,5.93
2018-05-08T16:01:25.122Z,5.12
2018-05-08T16:03:52.631Z,5.87
2018-05-08T16:06:20.908Z,8.05
2018-05-08T16:08:49.221Z,10.07
2018-05-08T16:11:16.763Z,4.75
2018-05-08T16:13:44.308Z,4.32
2018-05-08T16:16:11.825Z,5.62
2018-05-08T16:18:39.391Z,5.78
2018-05-08T16:21:06.905Z,9.02
2018-05-08T16:23:34.459Z,6.97
2018-05-08T16:26:01.977Z,5.20
2018-05-08T16:28:29.563Z,5.00
2018-05-08T16:30:57.854Z,5.75
2018-05-08T16:33:25.399Z,4.10
2018-05-08T16:35:52.920Z,5.57
2018-05-08T16:38:20.463Z,3.08
2018-05-08T16:40:47.988Z,6.37
2018-05-08T16:43:15.525Z,4.75
2018-05-08T16:45:43.828Z,9.13
2018-05-08T16:48:12.133Z,3.95
2018-05-08T16:50:39.679Z,6.95
2018-05-08T16:53:07.222Z,5.22
2018-05-08T16:55:34.774Z,5.65
2018-05-08T16:58:02.289Z,3.42
2018-05-08T17:00:30.579Z,4.80
2018-05-08T17:02:58.146Z,3.65
2018-05-08T17:05:26.477Z,5.12
2018-05-08T17:07:54.022Z,6.03
2018-05-08T17:10:21.590Z,3.80
2018-05-08T17:12:49.838Z,2.95
2018-05-08T17:15:17.422Z,6.35
2018-05-08T17:17:44.954Z,6.80
2018-05-08T17:20:13.226Z,3.53
2018-05-08T17:22:41.528Z,3.83
2018-05-08T17:25:09.889Z,7.60
2018-05-08T17:27:37.493Z,3.25
2018-05-08T17:30:05.039Z,5.70
2018-05-08T17:32:32.564Z,3.95
2018-05-08T17:35:01.191Z,4.50
2018-05-08T17:37:28.817Z,3.97
2018-05-08T17:39:56.362Z,4.87
2018-05-08T17:42:24.682Z,4.30
2018-05-08T17:44:52.229Z,3.83
2018-05-08T17:47:20.520Z,3.20
2018-05-08T17:49:48.064Z,4.70
2018-05-08T17:52:16.374Z,4.83
2018-05-08T17:54:44.667Z,3.60
2018-05-08T17:57:12.969Z,4.57
2018-05-08T17:59:41.276Z,3.43
2018-05-08T18:02:08.826Z,6.50
2018-05-08T18:04:36.362Z,5.53
2018-05-08T18:07:04.659Z,5.27
2018-05-08T18:09:32.224Z,6.13
2018-05-08T18:11:59.818Z,1.93
2018-05-08T18:14:27.375Z,4.60
2018-05-08T18:16:54.955Z,5.80
2018-05-08T18:19:22.509Z,3.73
2018-05-08T18:21:50.026Z,1.97
2018-05-08T18:24:18.337Z,4.93
2018-05-08T18:26:46.615Z,4.90
2018-05-08T18:29:14.218Z,5.83
2018-05-08T18:31:41.805Z,5.43
2018-05-08T18:34:09.323Z,3.83
2018-05-08T18:36:37.873Z,1.57
2018-05-08T18:39:05.410Z,7.13
2018-05-08T18:41:33.118Z,4.80
2018-05-08T18:44:00.670Z,3.23
2018-05-08T18:46:28.961Z,1.93
2018-05-08T18:48:57.241Z,4.47
2018-05-08T18:51:25.539Z,2.10
2018-05-08T18:53:53.969Z,2.53
2018-05-08T18:56:21.489Z,5.03
2018-05-08T18:58:49.077Z,3.00
2018-05-08T19:01:16.650Z,4.17
2018-05-08T19:03:44.205Z,7.00
2018-05-08T19:06:11.753Z,3.50
2018-05-08T19:08:39.295Z,3.00
2018-05-08T19:11:12.363Z,7.97
2018-05-08T19:13:40.726Z,5.20
2018-05-08T19:16:09.023Z,4.70
2018-05-08T19:18:42.201Z,2.23
2018-05-08T19:21:09.710Z,3.87
2018-05-08T19:23:37.269Z,3.93
2018-05-08T19:26:04.794Z,4.57
2018-05-08T19:28:38.795Z,2.43
2018-05-08T19:31:07.064Z,6.00
2018-05-08T19:33:36.168Z,3.60
2018-05-08T19:39:04.725Z,4.87
2018-05-08T19:41:32.987Z,4.03
2018-05-08T19:44:00.543Z,4.93
2018-05-08T19:46:28.846Z,2.40
2018-05-08T19:48:56.427Z,3.23
2018-05-08T19:51:23.997Z,3.73
2018-05-08T19:53:52.344Z,4.43
2018-05-08T19:56:19.900Z,2.47
2018-05-08T19:58:48.225Z,4.37
2018-05-08T20:01:15.773Z,3.40
2018-05-08T20:03:44.045Z,2.80
2018-05-08T20:06:12.369Z,4.43
2018-05-08T20:08:39.893Z,4.37
2018-05-08T20:11:07.441Z,3.40
2018-05-08T20:13:35.001Z,2.93
2018-05-08T20:16:03.326Z,3.43
2018-05-08T20:18:31.840Z,4.47
2018-05-08T20:20:59.441Z,5.10
2018-05-08T20:23:27.707Z,6.03
2018-05-08T20:25:56.041Z,5.13
2018-05-08T20:28:23.576Z,2.20
2018-05-08T20:30:51.095Z,6.07
2018-05-08T20:33:20.187Z,4.80
2018-05-08T20:35:48.471Z,2.67
2018-05-08T20:38:16.041Z,4.73
2018-05-08T20:40:44.322Z,4.20
2018-05-08T20:43:11.933Z,6.77
2018-05-08T20:45:39.480Z,3.87
2018-05-08T20:48:07.106Z,5.20
2018-05-08T20:50:34.652Z,3.07
2018-05-08T20:53:02.961Z,4.00
2018-05-08T20:55:30.542Z,5.10
2018-05-08T20:57:58.077Z,5.50
2018-05-08T21:00:25.639Z,3.93
2018-05-08T21:02:53.186Z,4.33
2018-05-08T21:05:20.740Z,3.57
2018-05-08T21:07:48.270Z,3.07
2018-05-08T21:10:15.877Z,5.87
2018-05-08T21:12:43.402Z,5.60
2018-05-08T21:15:10.973Z,4.60
2018-05-08T21:17:39.342Z,5.63
2018-05-08T21:20:07.589Z,4.63
2018-05-08T21:22:35.117Z,3.47
2018-05-08T21:25:02.671Z,4.50
2018-05-08T21:27:36.705Z,4.13
2018-05-08T21:30:09.835Z,3.57
2018-05-08T21:32:38.162Z,5.43
2018-05-08T21:35:05.840Z,4.37
2018-05-08T21:37:33.381Z,5.30
2018-05-08T21:40:00.897Z,4.27
2018-05-08T21:42:29.234Z,4.73
2018-05-08T21:44:56.762Z,4.53
2018-05-08T21:47:25.098Z,7.10
2018-05-08T21:49:52.633Z,3.63
2018-05-08T21:52:20.145Z,5.23
2018-05-08T21:54:47.691Z,8.57
2018-05-08T21:57:16.005Z,4.07
2018-05-08T21:59:44.094Z,4.27
2018-05-08T22:02:11.646Z,6.47
2018-05-08T22:04:39.189Z,2.70
2018-05-08T22:07:06.716Z,5.10
2018-05-08T22:09:35.025Z,4.87
2018-05-08T22:12:02.534Z,7.40
2018-05-08T22:14:30.050Z,5.37
2018-05-08T22:16:57.600Z,3.07
2018-05-08T22:19:25.134Z,3.50
2018-05-08T22:21:53.459Z,7.23
2018-05-08T22:24:20.981Z,7.27
2018-05-08T22:26:48.519Z,3.43
2018-05-08T22:29:16.932Z,3.60
2018-05-08T22:31:44.450Z,3.97
2018-05-08T22:34:11.990Z,6.13
2018-05-08T22:36:39.514Z,4.43
2018-05-08T22:39:07.053Z,3.90
2018-05-08T22:41:35.375Z,5.93
2018-05-08T22:44:02.882Z,4.00
2018-05-08T22:46:31.157Z,2.90
2018-05-08T22:48:59.463Z,5.47
2018-05-08T22:51:26.997Z,3.50
2018-05-08T22:53:55.295Z,3.87
2018-05-08T22:56:22.808Z,4.30
2018-05-08T22:58:50.348Z,6.13
2018-05-08T23:01:17.883Z,4.33
2018-05-08T23:03:45.412Z,4.07
2018-05-08T23:06:13.694Z,3.50
2018-05-08T23:08:41.293Z,4.40
2018-05-08T23:11:09.521Z,4.10
2018-05-08T23:13:37.838Z,3.60
2018-05-08T23:16:05.361Z,5.50
2018-05-08T23:18:33.662Z,3.87
2018-05-08T23:21:01.194Z,6.40
2018-05-08T23:23:29.475Z,5.77
2018-05-08T23:25:57.779Z,4.40
2018-05-08T23:28:25.297Z,5.67
2018-05-08T23:30:53.589Z,4.33
2018-05-08T23:33:22.646Z,5.77
2018-05-08T23:35:50.196Z,5.03
2018-05-08T23:38:17.702Z,3.20
2018-05-08T23:40:46.006Z,7.17
2018-05-08T23:43:13.529Z,6.10
2018-05-08T23:45:41.830Z,4.93
2018-05-08T23:48:09.337Z,5.57
2018-05-08T23:50:36.864Z,4.77
2018-05-08T23:53:04.385Z,5.33
2018-05-08T23:55:32.690Z,5.33
2018-05-08T23:58:00.206Z,5.03
